createdAt,value
2018-04-13T00:02:11.109Z,98758.51
2018-04-13T00:04:40.416Z,98754.09
2018-04-13T00:07:09.629Z,98755.45
2018-04-13T00:09:38.871Z,98761.48
2018-04-13T00:12:08.148Z,98763.36
2018-04-13T00:14:37.550Z,98764.43
2018-04-13T00:17:06.805Z,98763.91
2018-04-13T00:19:36.071Z,98759.63
2018-04-13T00:22:05.289Z,98756.62
2018-04-13T00:24:35.266Z,98756.23
2018-04-13T00:27:04.497Z,98755.30
2018-04-13T00:29:34.532Z,98748.91
2018-04-13T00:32:03.778Z,98746.14
2018-04-13T00:34:33.000Z,98746.73
2018-04-13T00:37:03.033Z,98747.26
2018-04-13T00:39:33.030Z,98751.44
2018-04-13T00:42:02.262Z,98751.95
2018-04-13T00:44:31.469Z,98751.47
2018-04-13T00:47:00.737Z,98758.94
2018-04-13T00:49:30.754Z,98754.72
2018-04-13T00:52:00.775Z,98755.39
2018-04-13T00:54:29.979Z,98756.98
2018-04-13T00:56:59.233Z,98764.36
2018-04-13T00:59:28.446Z,98760.55
2018-04-13T01:01:59.257Z,98768.72
2018-04-13T01:04:28.491Z,98766.97
2018-04-13T01:06:58.528Z,98761.48
2018-04-13T01:09:27.757Z,98761.25
2018-04-13T01:11:57.018Z,98756.09
2018-04-13T01:14:27.044Z,98755.34
2018-04-13T01:16:56.294Z,98757.67
2018-04-13T01:19:25.657Z,98752.64
2018-04-13T01:21:54.887Z,98754.17
2018-04-13T01:24:24.364Z,98753.98
2018-04-13T01:26:53.545Z,98757.65
2018-04-13T01:29:22.782Z,98757.65
2018-04-13T01:31:52.755Z,98760.12
2018-04-13T01:34:21.980Z,98755.44
2018-04-13T01:36:51.204Z,98764.83
2018-04-13T01:39:20.466Z,98758.63
2018-04-13T01:41:49.673Z,98758.92
2018-04-13T01:44:18.954Z,98761.55
2018-04-13T01:46:48.159Z,98768.88
2018-04-13T01:49:17.396Z,98757.81
2018-04-13T01:51:46.623Z,98763.39
2018-04-13T01:54:16.658Z,98761.88
2018-04-13T01:56:45.906Z,98768.88
2018-04-13T01:59:15.146Z,98774.70
2018-04-13T02:01:44.405Z,98780.63
2018-04-13T02:04:13.655Z,98787.02
2018-04-13T02:06:43.632Z,98788.36
2018-04-13T02:09:12.870Z,98785.25
2018-04-13T02:11:42.075Z,98791.61
2018-04-13T02:14:11.301Z,98784.62
2018-04-13T02:16:41.367Z,98789.48
2018-04-13T02:19:11.359Z,98795.19
2018-04-13T02:21:41.437Z,98795.66
2018-04-13T02:24:10.642Z,98795.66
2018-04-13T02:26:39.907Z,98803.40
2018-04-13T02:29:09.125Z,98804.26
2018-04-13T02:31:38.395Z,98806.48
2018-04-13T02:34:08.361Z,98806.63
2018-04-13T02:36:37.613Z,98810.14
2018-04-13T02:39:06.834Z,98805.77
2018-04-13T02:41:36.052Z,98806.31
2018-04-13T02:44:05.265Z,98805.34
2018-04-13T02:46:34.477Z,98811.02
2018-04-13T02:49:04.515Z,98806.19
2018-04-13T02:51:34.525Z,98820.74
2018-04-13T02:54:04.520Z,98817.67
2018-04-13T02:56:33.733Z,98818.59
2018-04-13T02:59:03.758Z,98823.77
2018-04-13T03:01:33.764Z,98824.28
2018-04-13T03:04:03.749Z,98828.34
2018-04-13T03:06:32.983Z,98831.98
2018-04-13T03:09:02.983Z,98831.59
2018-04-13T03:11:33.031Z,98835.02
2018-04-13T03:14:02.292Z,98833.38
2018-04-13T03:16:31.708Z,98836.78
2018-04-13T03:19:01.725Z,98838.84
2018-04-13T03:21:31.727Z,98843.73
2018-04-13T03:24:01.768Z,98849.14
2018-04-13T03:26:31.804Z,98850.27
2018-04-13T03:29:01.014Z,98848.88
2018-04-13T03:31:30.276Z,98847.85
2018-04-13T03:34:00.261Z,98855.98
2018-04-13T03:36:29.478Z,98850.19
2018-04-13T03:38:59.527Z,98860.64
2018-04-13T03:41:28.759Z,98854.22
2018-04-13T03:43:58.710Z,98859.14
2018-04-13T03:46:28.689Z,98853.73
2018-04-13T03:48:57.933Z,98856.81
2018-04-13T03:51:27.938Z,98856.84
2018-04-13T03:53:57.435Z,98865.23
2018-04-13T03:56:26.686Z,98863.88
2018-04-13T03:58:56.666Z,98865.78
2018-04-13T04:01:25.941Z,98862.38
2018-04-13T04:03:55.166Z,98866.63
2018-04-13T04:06:24.629Z,98866.00
2018-04-13T04:08:53.878Z,98863.98
2018-04-13T04:11:23.116Z,98862.62
2018-04-13T04:13:52.373Z,98867.72
2018-04-13T04:16:22.395Z,98870.80
2018-04-13T04:18:51.639Z,98882.20
2018-04-13T04:24:47.266Z,98873.72
2018-04-13T04:27:16.476Z,98879.18
2018-04-13T04:29:45.750Z,98885.27
2018-04-13T04:32:14.970Z,98884.62
2018-04-13T04:34:44.227Z,98882.91
2018-04-13T04:37:13.488Z,98884.45
2018-04-13T04:39:42.666Z,98880.46
2018-04-13T04:42:11.934Z,98875.60
2018-04-13T04:44:42.010Z,98884.72
2018-04-13T04:47:11.254Z,98888.64
2018-04-13T04:49:40.481Z,98890.18
2018-04-13T04:52:09.713Z,98890.96
2018-04-13T04:54:39.701Z,98893.17
2018-04-13T04:57:08.909Z,98899.42
2018-04-13T04:59:38.976Z,98905.45
2018-04-13T05:02:09.029Z,98908.19
2018-04-13T05:04:38.248Z,98909.52
2018-04-13T05:07:08.092Z,98912.41
2018-04-13T05:09:37.301Z,98910.82
2018-04-13T05:12:06.559Z,98913.91
2018-04-13T05:14:35.730Z,98915.12
2018-04-13T05:17:05.564Z,98916.48
2018-04-13T05:19:35.677Z,98918.64
2018-04-13T05:22:05.053Z,98927.49
2018-04-13T05:24:34.291Z,98927.27
2018-04-13T05:27:04.320Z,98932.14
2018-04-13T05:29:33.524Z,98930.75
2018-04-13T05:32:02.786Z,98940.60
2018-04-13T05:34:32.031Z,98942.63
2018-04-13T05:37:01.244Z,98939.16
2018-04-13T05:39:30.468Z,98941.81
2018-04-13T05:41:59.700Z,98944.02
2018-04-13T05:44:28.954Z,98942.23
2018-04-13T05:46:58.174Z,98946.48
2018-04-13T05:49:28.190Z,98942.55
2018-04-13T05:51:57.398Z,98944.63
2018-04-13T05:54:27.405Z,98947.70
2018-04-13T05:56:56.793Z,98948.29
2018-04-13T05:59:26.016Z,98945.96
2018-04-13T06:01:55.215Z,98951.13
2018-04-13T06:04:25.248Z,98951.25
2018-04-13T06:06:54.629Z,98962.43
2018-04-13T06:09:24.645Z,98957.98
2018-04-13T06:11:53.846Z,98956.47
2018-04-13T06:14:23.859Z,98961.64
2018-04-13T06:16:53.069Z,98963.71
2018-04-13T06:19:23.086Z,98964.63
2018-04-13T06:21:53.057Z,98965.98
2018-04-13T06:24:22.350Z,98977.59
2018-04-13T06:26:52.273Z,98987.48
2018-04-13T06:29:21.476Z,98996.59
2018-04-13T06:31:50.776Z,99001.33
2018-04-13T06:34:20.112Z,99015.66
2018-04-13T06:36:50.109Z,99038.61
2018-04-13T06:39:19.312Z,99050.53
2018-04-13T06:41:48.557Z,99040.16
2018-04-13T06:44:17.802Z,99021.03
2018-04-13T06:46:47.068Z,99009.08
2018-04-13T06:49:16.242Z,99011.73
2018-04-13T06:51:45.480Z,98994.20
2018-04-13T06:54:14.678Z,98986.66
2018-04-13T06:56:43.970Z,98989.36
2018-04-13T06:59:13.409Z,98985.95
2018-04-13T07:01:43.400Z,98977.85
2018-04-13T07:04:12.620Z,98972.73
2018-04-13T07:06:42.737Z,98973.42
2018-04-13T07:09:12.737Z,98978.83
2018-04-13T07:11:41.964Z,98988.98
2018-04-13T07:14:11.962Z,98998.00
2018-04-13T07:16:41.958Z,99003.26
2018-04-13T07:19:11.184Z,99008.08
2018-04-13T07:21:41.169Z,99011.67
2018-04-13T07:24:10.398Z,99020.73
2018-04-13T07:26:40.436Z,99014.78
2018-04-13T07:29:09.610Z,99009.38
2018-04-13T07:31:39.608Z,99011.02
2018-04-13T07:34:08.974Z,99015.78
2018-04-13T07:36:38.222Z,99017.23
2018-04-13T07:39:08.223Z,99014.72
2018-04-13T07:41:37.457Z,99018.23
2018-04-13T07:44:06.680Z,99018.67
2018-04-13T07:46:35.893Z,99014.06
2018-04-13T07:49:06.120Z,99022.50
2018-04-13T07:51:35.178Z,99018.61
2018-04-13T07:54:04.502Z,99013.80
2018-04-13T07:56:33.705Z,99022.02
2018-04-13T07:59:02.950Z,99018.36
2018-04-13T08:01:32.968Z,99025.23
2018-04-13T08:04:02.994Z,99025.09
2018-04-13T08:06:32.224Z,99019.64
2018-04-13T08:09:01.438Z,99031.81
2018-04-13T08:11:30.677Z,99025.80
2018-04-13T08:14:00.000Z,99025.01
2018-04-13T08:16:29.117Z,99032.20
2018-04-13T08:18:58.329Z,99029.27
2018-04-13T08:21:27.613Z,99030.88
2018-04-13T08:23:56.854Z,99037.04
2018-04-13T08:26:26.117Z,99038.27
2018-04-13T08:28:55.317Z,99043.73
2018-04-13T08:31:25.338Z,99050.14
2018-04-13T08:33:55.313Z,99052.48
2018-04-13T08:36:25.022Z,99058.33
2018-04-13T08:38:54.985Z,99060.05
2018-04-13T08:41:24.320Z,99063.22
2018-04-13T08:43:53.485Z,99061.02
2018-04-13T08:46:22.762Z,99059.72
2018-04-13T08:48:52.228Z,99063.28
2018-04-13T08:51:22.019Z,99065.72
2018-04-13T08:53:52.058Z,99071.25
2018-04-13T08:56:22.093Z,99070.34
2018-04-13T08:58:51.322Z,99074.50
2018-04-13T09:01:20.537Z,99083.34
2018-04-13T09:03:49.767Z,99094.67
2018-04-13T09:06:19.014Z,99097.88
2018-04-13T09:08:48.275Z,99097.25
2018-04-13T09:11:17.497Z,99094.26
2018-04-13T09:13:46.710Z,99094.06
2018-04-13T09:16:15.929Z,99102.22
2018-04-13T09:18:45.153Z,99106.28
2018-04-13T09:21:15.247Z,99090.77
2018-04-13T09:23:44.697Z,99097.70
2018-04-13T09:26:14.711Z,99100.11
2018-04-13T09:28:43.934Z,99094.16
2018-04-13T09:31:13.151Z,99095.19
2018-04-13T09:33:42.409Z,99094.46
2018-04-13T09:36:11.628Z,99087.47
2018-04-13T09:38:40.890Z,99096.41
2018-04-13T09:41:10.102Z,99088.59
2018-04-13T09:43:39.333Z,99094.89
2018-04-13T09:46:08.579Z,99096.61
2018-04-13T09:48:37.766Z,99101.14
2018-04-13T09:51:07.012Z,99099.09
2018-04-13T09:53:36.257Z,99101.40
2018-04-13T09:56:06.246Z,99101.35
2018-04-13T09:58:35.527Z,99101.93
2018-04-13T10:01:04.770Z,99108.38
2018-04-13T10:03:40.146Z,99112.34
2018-04-13T10:06:09.376Z,99120.56
2018-04-13T10:08:38.635Z,99120.83
2018-04-13T10:11:07.881Z,99120.68
2018-04-13T10:13:37.123Z,99126.31
2018-04-13T10:16:06.323Z,99126.52
2018-04-13T10:18:35.610Z,99124.41
2018-04-13T10:21:05.602Z,99125.38
2018-04-13T10:23:34.809Z,99119.55
2018-04-13T10:26:04.800Z,99127.72
2018-04-13T10:28:34.064Z,99126.91
2018-04-13T10:31:03.277Z,99126.17
2018-04-13T10:33:32.565Z,99134.81
2018-04-13T10:36:01.767Z,99133.48
2018-04-13T10:38:30.992Z,99136.85
2018-04-13T10:41:00.589Z,99139.41
2018-04-13T10:43:30.130Z,99149.27
2018-04-13T10:46:00.145Z,99154.94
2018-04-13T10:48:29.366Z,99161.16
2018-04-13T10:50:58.617Z,99160.14
2018-04-13T10:53:27.866Z,99158.72
2018-04-13T10:55:57.297Z,99161.31
2018-04-13T10:58:26.509Z,99167.23
2018-04-13T11:00:55.738Z,99170.74
2018-04-13T11:03:25.777Z,99179.28
2018-04-13T11:05:55.014Z,99178.75
2018-04-13T11:08:24.253Z,99178.23
2018-04-13T11:10:54.337Z,99190.00
2018-04-13T11:13:23.575Z,99187.86
2018-04-13T11:15:53.570Z,99187.36
2018-04-13T11:18:23.585Z,99195.34
2018-04-13T11:20:52.907Z,99189.27
2018-04-13T11:23:22.968Z,99190.48
2018-04-13T11:25:52.197Z,99202.11
2018-04-13T11:28:21.439Z,99196.75
2018-04-13T11:30:50.671Z,99205.16
2018-04-13T11:33:20.102Z,99208.67
2018-04-13T11:35:49.920Z,99208.20
2018-04-13T11:38:19.931Z,99207.69
2018-04-13T11:40:49.135Z,99212.20
2018-04-13T11:43:18.447Z,99210.95
2018-04-13T11:45:47.618Z,99218.24
2018-04-13T11:48:16.883Z,99214.16
2018-04-13T11:50:46.101Z,99218.66
2018-04-13T11:53:15.392Z,99225.03
2018-04-13T11:55:44.610Z,99228.36
2018-04-13T11:58:13.865Z,99226.41
2018-04-13T12:00:43.084Z,99224.11
2018-04-13T12:03:12.305Z,99232.92
2018-04-13T12:05:41.551Z,99233.11
2018-04-13T12:08:11.512Z,99243.80
2018-04-13T12:10:41.586Z,99238.05
2018-04-13T12:13:10.809Z,99233.05
2018-04-13T12:15:40.115Z,99243.58
2018-04-13T12:18:09.318Z,99247.35
2018-04-13T12:20:39.202Z,99244.58
2018-04-13T12:23:08.437Z,99238.78
2018-04-13T12:25:37.705Z,99232.91
2018-04-13T12:28:06.938Z,99227.05
2018-04-13T12:30:36.967Z,99237.69
2018-04-13T12:33:06.203Z,99233.83
2018-04-13T12:35:35.443Z,99238.51
2018-04-13T12:38:04.648Z,99248.88
2018-04-13T12:40:33.874Z,99253.04
2018-04-13T12:43:03.074Z,99253.77
2018-04-13T12:45:32.319Z,99268.89
2018-04-13T12:48:01.526Z,99263.95
2018-04-13T12:50:30.772Z,99263.09
2018-04-13T12:53:00.746Z,99273.03
2018-04-13T12:55:30.034Z,99272.69
2018-04-13T12:57:59.205Z,99269.37
2018-04-13T13:00:28.437Z,99287.13
2018-04-13T13:02:57.671Z,99279.87
2018-04-13T13:18:26.917Z,99257.71
2018-04-13T13:20:56.142Z,99256.89
2018-04-13T13:23:25.434Z,99260.45
2018-04-13T13:25:54.647Z,99267.03
2018-04-13T13:28:23.893Z,99275.62
2018-04-13T13:30:53.128Z,99268.30
2018-04-13T13:33:23.145Z,99274.11
2018-04-13T13:35:53.798Z,99276.97
2018-04-13T13:38:23.899Z,99278.63
2018-04-13T13:40:53.916Z,99279.27
2018-04-13T13:43:23.970Z,99285.52
2018-04-13T13:45:53.204Z,99289.45
2018-04-13T13:48:22.470Z,99292.38
2018-04-13T14:03:51.734Z,99299.37
2018-04-13T14:06:20.983Z,99306.55
2018-04-13T14:08:50.267Z,99306.11
2018-04-13T14:11:19.502Z,99318.08
2018-04-13T14:13:48.770Z,99317.91
2018-04-13T14:16:17.997Z,99323.19
2018-04-13T14:18:47.232Z,99326.70
2018-04-13T14:21:16.724Z,99331.45
2018-04-13T14:23:46.418Z,99346.03
2018-04-13T14:26:16.411Z,99348.44
2018-04-13T14:28:45.658Z,99357.52
2018-04-13T14:31:14.899Z,99361.05
2018-04-13T14:33:44.166Z,99359.33
2018-04-13T14:36:13.410Z,99362.39
2018-04-13T14:38:42.692Z,99361.28
2018-04-13T14:41:11.917Z,99360.10
2018-04-13T14:43:41.915Z,99362.22
2018-04-13T14:46:11.181Z,99362.22
2018-04-13T14:48:40.450Z,99360.46
2018-04-13T14:51:10.439Z,99358.70
2018-04-13T14:53:40.418Z,99361.64
2018-04-13T14:56:09.646Z,99366.94
2018-04-13T14:58:38.909Z,99368.98
2018-04-13T15:01:08.180Z,99370.33
2018-04-13T15:03:37.446Z,99375.39
2018-04-13T15:06:06.695Z,99379.89
2018-04-13T15:08:35.954Z,99385.19
2018-04-13T15:11:05.998Z,99385.20
2018-04-13T15:13:35.248Z,99379.53
2018-04-13T15:16:05.267Z,99383.23
2018-04-13T15:18:34.528Z,99393.66
2018-04-13T15:21:04.685Z,99390.73
2018-04-13T15:23:33.909Z,99400.70
2018-04-13T15:26:03.937Z,99408.89
2018-04-13T15:28:33.185Z,99401.11
2018-04-13T15:31:02.451Z,99404.98
2018-04-13T15:33:31.708Z,99403.64
2018-04-13T15:36:01.723Z,99406.25
2018-04-13T15:38:30.969Z,99400.97
2018-04-13T15:41:00.198Z,99407.45
2018-04-13T15:43:29.427Z,99399.83
2018-04-13T15:45:59.450Z,99397.88
2018-04-13T15:48:29.462Z,99407.73
2018-04-13T15:50:59.637Z,99412.22
2018-04-13T15:53:28.849Z,99414.60
2018-04-13T15:55:58.205Z,99419.54
2018-04-13T15:58:28.170Z,99422.48
2018-04-13T16:00:57.536Z,99424.33
2018-04-13T16:03:26.752Z,99426.95
2018-04-13T16:05:56.014Z,99423.05
2018-04-13T16:08:25.234Z,99430.67
2018-04-13T16:10:54.481Z,99433.41
2018-04-13T16:13:24.090Z,99439.95
2018-04-13T16:15:54.100Z,99442.88
2018-04-13T16:18:23.357Z,99436.92
2018-04-13T16:20:52.627Z,99441.80
2018-04-13T16:23:22.614Z,99441.95
2018-04-13T16:25:52.676Z,99438.67
2018-04-13T16:28:22.662Z,99445.44
2018-04-13T16:30:51.898Z,99446.20
2018-04-13T16:33:21.241Z,99450.29
2018-04-13T16:35:50.519Z,99453.81
2018-04-13T16:38:19.764Z,99453.61
2018-04-13T16:40:49.762Z,99464.87
2018-04-13T16:43:19.755Z,99467.70
2018-04-13T16:45:49.029Z,99475.92
2018-04-13T16:48:18.262Z,99478.05
2018-04-13T16:50:47.573Z,99477.22
2018-04-13T16:53:17.563Z,99479.02
2018-04-13T16:55:46.809Z,99471.31
2018-04-13T16:58:16.084Z,99480.41
2018-04-13T17:00:46.073Z,99477.34
2018-04-13T17:03:15.363Z,99480.38
2018-04-13T17:05:44.603Z,99478.70
2018-04-13T17:08:14.646Z,99481.80
2018-04-13T17:10:44.639Z,99484.15
2018-04-13T17:13:14.638Z,99493.83
2018-04-13T17:15:43.936Z,99490.38
2018-04-13T17:18:13.199Z,99492.09
2018-04-13T17:20:42.463Z,99494.39
2018-04-13T17:23:12.492Z,99498.80
2018-04-13T17:25:41.733Z,99507.77
2018-04-13T17:28:10.938Z,99501.77
2018-04-13T17:30:41.077Z,99507.38
2018-04-13T17:33:11.070Z,99505.11
2018-04-13T17:35:40.305Z,99509.86
2018-04-13T17:38:09.713Z,99518.22
2018-04-13T17:40:39.714Z,99514.91
2018-04-13T17:43:08.982Z,99519.70
2018-04-13T17:45:38.202Z,99524.77
2018-04-13T17:48:08.547Z,99528.47
2018-04-13T17:50:38.552Z,99525.88
2018-04-13T17:53:07.820Z,99532.92
2018-04-13T17:55:37.114Z,99525.98
2018-04-13T17:58:06.321Z,99529.09
2018-04-13T18:00:35.808Z,99540.98
2018-04-13T18:03:05.066Z,99538.39
2018-04-13T18:05:34.309Z,99549.29
2018-04-13T18:08:03.593Z,99546.17
2018-04-13T18:10:32.890Z,99554.23
2018-04-13T18:13:02.177Z,99554.86
2018-04-13T18:15:32.129Z,99562.01
2018-04-13T18:18:01.414Z,99562.59
2018-04-13T18:20:30.642Z,99566.45
2018-04-13T18:23:00.687Z,99575.88
2018-04-13T18:25:29.916Z,99575.45
2018-04-13T18:27:59.131Z,99576.24
2018-04-13T18:30:28.364Z,99575.48
2018-04-13T18:32:57.657Z,99579.16
2018-04-13T18:35:26.873Z,99583.91
2018-04-13T18:37:56.133Z,99587.23
2018-04-13T18:40:25.380Z,99586.24
2018-04-13T18:42:54.633Z,99595.56
2018-04-13T18:45:23.865Z,99597.33
2018-04-13T18:47:53.112Z,99592.38
2018-04-13T18:50:22.327Z,99600.09
2018-04-13T18:52:51.564Z,99598.63
2018-04-13T18:55:21.534Z,99606.89
2018-04-13T18:57:50.844Z,99613.45
2018-04-13T19:00:20.077Z,99614.55
2018-04-13T19:02:49.322Z,99621.77
2018-04-13T19:05:18.580Z,99631.00
2018-04-13T19:07:47.846Z,99625.05
2018-04-13T19:10:17.905Z,99631.63
2018-04-13T19:12:47.127Z,99640.89
2018-04-13T19:15:16.369Z,99645.56
2018-04-13T19:17:45.602Z,99646.44
2018-04-13T19:20:14.978Z,99652.23
2018-04-13T19:22:44.189Z,99652.17
2018-04-13T19:25:13.501Z,99650.81
2018-04-13T19:27:42.741Z,99655.70
2018-04-13T19:30:12.000Z,99663.83
2018-04-13T19:32:41.237Z,99666.07
2018-04-13T19:35:10.526Z,99669.02
2018-04-13T19:37:39.774Z,99667.92
2018-04-13T19:40:09.801Z,99680.03
2018-04-13T19:42:38.986Z,99680.12
2018-04-13T19:45:09.005Z,99676.78
2018-04-13T19:47:38.262Z,99675.84
2018-04-13T19:50:07.503Z,99678.72
2018-04-13T19:52:36.748Z,99676.56
2018-04-13T19:55:06.033Z,99681.63
2018-04-13T19:57:35.258Z,99684.27
2018-04-13T20:00:04.532Z,99686.78
2018-04-13T20:02:33.742Z,99694.61
2018-04-13T20:05:03.023Z,99693.03
2018-04-13T20:07:32.231Z,99693.89
2018-04-13T20:10:01.478Z,99701.50
2018-04-13T20:12:31.478Z,99695.60
2018-04-13T20:15:01.511Z,99700.30
2018-04-13T20:17:31.549Z,99690.20
2018-04-13T20:20:00.763Z,99695.48
2018-04-13T20:22:30.030Z,99696.70
2018-04-13T20:24:59.870Z,99699.07
2018-04-13T20:27:29.104Z,99698.06
2018-04-13T20:29:59.150Z,99695.91
2018-04-13T20:32:29.183Z,99687.30
2018-04-13T20:34:58.711Z,99692.94
2018-04-13T20:37:28.001Z,99695.47
2018-04-13T20:39:57.236Z,99696.36
2018-04-13T20:42:26.511Z,99701.39
2018-04-13T20:44:55.763Z,99704.95
2018-04-13T20:47:25.771Z,99707.83
2018-04-13T20:49:55.024Z,99710.89
2018-04-13T20:52:24.272Z,99719.05
2018-04-13T20:54:53.724Z,99715.95
2018-04-13T20:57:22.921Z,99730.86
2018-04-13T20:59:52.199Z,99724.29
2018-04-13T21:02:21.467Z,99726.70
2018-04-13T21:04:50.702Z,99735.78
2018-04-13T21:07:19.952Z,99739.16
2018-04-13T21:09:49.198Z,99741.28
2018-04-13T21:12:18.930Z,99748.64
2018-04-13T21:14:48.183Z,99748.64
2018-04-13T21:17:18.191Z,99758.59
2018-04-13T21:19:48.182Z,99758.27
2018-04-13T21:22:17.433Z,99765.34
2018-04-13T21:24:46.695Z,99778.45
2018-04-13T21:27:16.395Z,99774.68
2018-04-13T21:29:45.716Z,99775.44
2018-04-13T21:32:15.849Z,99775.47
2018-04-13T21:34:45.080Z,99776.36
2018-04-13T21:37:14.376Z,99773.78
2018-04-13T21:39:43.614Z,99769.19
2018-04-13T21:42:12.859Z,99774.25
2018-04-13T21:44:42.081Z,99777.95
2018-04-13T21:47:11.313Z,99780.85
2018-04-13T21:49:41.300Z,99785.88
2018-04-13T21:52:10.532Z,99785.63
2018-04-13T21:54:41.447Z,99782.11
2018-04-13T21:57:10.703Z,99790.08
2018-04-13T21:59:40.170Z,99789.25
2018-04-13T22:02:10.172Z,99793.98
2018-04-13T22:04:39.402Z,99791.22
2018-04-13T22:07:08.673Z,99787.16
2018-04-13T22:09:38.035Z,99789.31
2018-04-13T22:25:42.655Z,99804.20
2018-04-13T22:28:11.879Z,99805.97
2018-04-13T22:30:41.094Z,99809.38
2018-04-13T22:33:11.115Z,99808.05
2018-04-13T22:35:41.106Z,99809.40
2018-04-13T22:38:10.349Z,99813.31
2018-04-13T22:40:39.602Z,99812.88
2018-04-13T22:43:08.844Z,99816.40
2018-04-13T22:45:38.941Z,99818.18
2018-04-13T22:48:08.945Z,99818.36
2018-04-13T22:50:38.158Z,99822.62
2018-04-13T22:53:08.192Z,99814.05
2018-04-13T22:55:37.456Z,99828.96
2018-04-13T22:58:06.696Z,99827.27
2018-04-13T23:00:36.649Z,99831.23
2018-04-13T23:03:05.865Z,99828.97
2018-04-13T23:05:35.084Z,99834.48
2018-04-13T23:08:04.326Z,99836.55
2018-04-13T23:10:33.746Z,99833.30
2018-04-13T23:13:02.938Z,99836.39
2018-04-13T23:15:32.183Z,99841.58
2018-04-13T23:18:01.403Z,99844.05
2018-04-13T23:20:30.672Z,99846.73
2018-04-13T23:23:00.669Z,99847.44
2018-04-13T23:25:29.926Z,99853.20
2018-04-13T23:27:59.166Z,99856.28
2018-04-13T23:30:28.435Z,99853.16
2018-04-13T23:32:57.663Z,99862.34
2018-04-13T23:35:26.928Z,99860.89
2018-04-13T23:37:56.144Z,99862.26
2018-04-13T23:40:25.419Z,99860.89
2018-04-13T23:42:54.665Z,99866.70
2018-04-13T23:45:24.690Z,99867.98
2018-04-13T23:47:53.942Z,99873.73
2018-04-13T23:50:23.213Z,99873.29
2018-04-13T23:52:52.473Z,99880.25
2018-04-13T23:55:22.456Z,99884.73
2018-04-13T23:57:51.701Z,99885.59
